sensor_id;sensor_type;location;lat;lon;timestamp;P1;durP1;ratioP1;P2;durP2;ratioP2
51448;SDS011;37520;46.570;14.268;2022-08-11T00:09:42;4.05;;;1.70;;
51448;SDS011;37520;46.570;14.268;2022-08-11T00:19:44;3.95;;;1.80;;
51448;SDS011;37520;46.570;14.268;2022-08-11T00:29:52;3.67;;;1.70;;
51448;SDS011;37520;46.570;14.268;2022-08-11T00:39:54;5.60;;;1.88;;
51448;SDS011;37520;46.570;14.268;2022-08-11T01:00:55;4.15;;;1.80;;
51448;SDS011;37520;46.570;14.268;2022-08-11T01:52:45;2.90;;;1.50;;
51448;SDS011;37520;46.570;14.268;2022-08-11T02:03:02;4.68;;;1.95;;
51448;SDS011;37520;46.570;14.268;2022-08-11T02:23:59;4.57;;;1.60;;
51448;SDS011;37520;46.570;14.268;2022-08-11T02:34:09;5.20;;;1.90;;
51448;SDS011;37520;46.570;14.268;2022-08-11T02:44:26;3.23;;;1.50;;
51448;SDS011;37520;46.570;14.268;2022-08-11T03:05:05;4.95;;;1.73;;
51448;SDS011;37520;46.570;14.268;2022-08-11T03:15:19;4.05;;;1.90;;
51448;SDS011;37520;46.570;14.268;2022-08-11T03:26:09;5.57;;;1.80;;
51448;SDS011;37520;46.570;14.268;2022-08-11T04:18:22;3.70;;;2.00;;
51448;SDS011;37520;46.570;14.268;2022-08-11T04:39:08;4.32;;;1.60;;
51448;SDS011;37520;46.570;14.268;2022-08-11T05:20:47;3.80;;;2.00;;
51448;SDS011;37520;46.570;14.268;2022-08-11T05:31:11;3.78;;;2.00;;
51448;SDS011;37520;46.570;14.268;2022-08-11T05:41:33;4.47;;;1.98;;
51448;SDS011;37520;46.570;14.268;2022-08-11T05:51:54;5.82;;;2.10;;
51448;SDS011;37520;46.570;14.268;2022-08-11T06:02:15;6.95;;;2.10;;
51448;SDS011;37520;46.570;14.268;2022-08-11T06:12:51;4.68;;;2.47;;
51448;SDS011;37520;46.570;14.268;2022-08-11T06:22:57;6.18;;;2.55;;
51448;SDS011;37520;46.570;14.268;2022-08-11T06:33:02;7.25;;;2.45;;
51448;SDS011;37520;46.570;14.268;2022-08-11T06:53:26;5.28;;;2.65;;
51448;SDS011;37520;46.570;14.268;2022-08-11T07:03:36;4.95;;;2.58;;
51448;SDS011;37520;46.570;14.268;2022-08-11T07:13:42;5.87;;;2.83;;
51448;SDS011;37520;46.570;14.268;2022-08-11T07:24:07;4.80;;;2.00;;
51448;SDS011;37520;46.570;14.268;2022-08-11T07:34:50;4.30;;;2.17;;
51448;SDS011;37520;46.570;14.268;2022-08-11T07:44:56;5.07;;;2.10;;
51448;SDS011;37520;46.570;14.268;2022-08-11T07:55:18;6.55;;;1.95;;
51448;SDS011;37520;46.570;14.268;2022-08-11T08:05:22;4.75;;;2.00;;
51448;SDS011;37520;46.570;14.268;2022-08-11T08:15:42;5.32;;;2.10;;
51448;SDS011;37520;46.570;14.268;2022-08-11T08:26:03;3.55;;;1.83;;
51448;SDS011;37520;46.570;14.268;2022-08-11T08:36:29;3.97;;;1.75;;
51448;SDS011;37520;46.570;14.268;2022-08-11T08:46:35;3.70;;;1.65;;
51448;SDS011;37520;46.570;14.268;2022-08-11T08:56:40;3.65;;;1.95;;
51448;SDS011;37520;46.570;14.268;2022-08-11T09:06:44;4.80;;;1.95;;
51448;SDS011;37520;46.570;14.268;2022-08-11T09:16:47;3.85;;;2.00;;
51448;SDS011;37520;46.570;14.268;2022-08-11T09:26:50;3.22;;;1.75;;
51448;SDS011;37520;46.570;14.268;2022-08-11T09:37:02;6.65;;;1.90;;
51448;SDS011;37520;46.570;14.268;2022-08-11T09:47:25;17.90;;;3.08;;
51448;SDS011;37520;46.570;14.268;2022-08-11T09:57:29;6.80;;;1.73;;
51448;SDS011;37520;46.570;14.268;2022-08-11T10:07:49;4.72;;;1.75;;
51448;SDS011;37520;46.570;14.268;2022-08-11T10:17:54;3.22;;;1.58;;
51448;SDS011;37520;46.570;14.268;2022-08-11T10:28:18;5.28;;;1.23;;
51448;SDS011;37520;46.570;14.268;2022-08-11T10:38:20;3.35;;;0.90;;
51448;SDS011;37520;46.570;14.268;2022-08-11T10:48:23;1.98;;;0.80;;
51448;SDS011;37520;46.570;14.268;2022-08-11T10:58:29;2.67;;;1.10;;
51448;SDS011;37520;46.570;14.268;2022-08-11T11:09:33;3.45;;;1.15;;
51448;SDS011;37520;46.570;14.268;2022-08-11T11:19:18;3.33;;;1.13;;
51448;SDS011;37520;46.570;14.268;2022-08-11T11:39:30;5.20;;;1.10;;
51448;SDS011;37520;46.570;14.268;2022-08-11T11:49:33;5.13;;;1.10;;
51448;SDS011;37520;46.570;14.268;2022-08-11T11:59:39;3.27;;;1.37;;
51448;SDS011;37520;46.570;14.268;2022-08-11T12:09:59;1.73;;;0.90;;
51448;SDS011;37520;46.570;14.268;2022-08-11T12:20:01;4.07;;;1.15;;
51448;SDS011;37520;46.570;14.268;2022-08-11T12:30:04;2.15;;;0.90;;
51448;SDS011;37520;46.570;14.268;2022-08-11T12:40:11;2.28;;;1.10;;
51448;SDS011;37520;46.570;14.268;2022-08-11T12:50:34;2.77;;;1.27;;
51448;SDS011;37520;46.570;14.268;2022-08-11T13:00:55;2.47;;;1.20;;
51448;SDS011;37520;46.570;14.268;2022-08-11T13:11:16;4.72;;;1.10;;
51448;SDS011;37520;46.570;14.268;2022-08-11T13:21:39;2.85;;;1.02;;
51448;SDS011;37520;46.570;14.268;2022-08-11T13:31:40;3.13;;;1.20;;
51448;SDS011;37520;46.570;14.268;2022-08-11T13:41:42;3.05;;;1.20;;
51448;SDS011;37520;46.570;14.268;2022-08-11T13:51:47;3.40;;;1.00;;
51448;SDS011;37520;46.570;14.268;2022-08-11T14:01:53;3.28;;;1.20;;
51448;SDS011;37520;46.570;14.268;2022-08-11T14:12:01;2.83;;;1.20;;
51448;SDS011;37520;46.570;14.268;2022-08-11T14:22:25;2.33;;;1.10;;
51448;SDS011;37520;46.570;14.268;2022-08-11T14:32:30;4.13;;;1.25;;
51448;SDS011;37520;46.570;14.268;2022-08-11T14:42:32;3.38;;;1.30;;
51448;SDS011;37520;46.570;14.268;2022-08-11T14:52:57;3.33;;;1.08;;
51448;SDS011;37520;46.570;14.268;2022-08-11T15:03:00;3.70;;;1.10;;
51448;SDS011;37520;46.570;14.268;2022-08-11T15:13:16;4.55;;;1.17;;
51448;SDS011;37520;46.570;14.268;2022-08-11T15:23:18;3.60;;;1.20;;
51448;SDS011;37520;46.570;14.268;2022-08-11T15:33:39;3.15;;;1.20;;
51448;SDS011;37520;46.570;14.268;2022-08-11T15:44:04;8.05;;;1.30;;
51448;SDS011;37520;46.570;14.268;2022-08-11T15:54:29;6.23;;;1.50;;
51448;SDS011;37520;46.570;14.268;2022-08-11T16:04:33;2.90;;;1.27;;
51448;SDS011;37520;46.570;14.268;2022-08-11T16:14:41;2.72;;;1.10;;
51448;SDS011;37520;46.570;14.268;2022-08-11T16:25:04;3.05;;;1.08;;
51448;SDS011;37520;46.570;14.268;2022-08-11T16:35:10;3.15;;;1.20;;
51448;SDS011;37520;46.570;14.268;2022-08-11T16:45:42;2.83;;;1.10;;
51448;SDS011;37520;46.570;14.268;2022-08-11T16:56:03;2.20;;;0.90;;
51448;SDS011;37520;46.570;14.268;2022-08-11T17:06:07;9.48;;;1.40;;
51448;SDS011;37520;46.570;14.268;2022-08-11T17:16:34;3.63;;;1.20;;
51448;SDS011;37520;46.570;14.268;2022-08-11T17:26:42;2.57;;;1.20;;
51448;SDS011;37520;46.570;14.268;2022-08-11T17:36:59;2.90;;;1.30;;
51448;SDS011;37520;46.570;14.268;2022-08-11T17:47:01;2.83;;;1.13;;
51448;SDS011;37520;46.570;14.268;2022-08-11T17:57:22;3.42;;;1.42;;
51448;SDS011;37520;46.570;14.268;2022-08-11T18:07:43;4.07;;;1.60;;
51448;SDS011;37520;46.570;14.268;2022-08-11T18:18:04;4.43;;;1.42;;
51448;SDS011;37520;46.570;14.268;2022-08-11T18:28:26;4.88;;;1.52;;
51448;SDS011;37520;46.570;14.268;2022-08-11T18:38:49;4.00;;;1.52;;
51448;SDS011;37520;46.570;14.268;2022-08-11T18:49:14;4.20;;;1.70;;
51448;SDS011;37520;46.570;14.268;2022-08-11T18:59:39;3.80;;;1.50;;
51448;SDS011;37520;46.570;14.268;2022-08-11T19:10:03;4.97;;;1.80;;
51448;SDS011;37520;46.570;14.268;2022-08-11T19:20:28;4.85;;;1.70;;
51448;SDS011;37520;46.570;14.268;2022-08-11T19:30:51;4.93;;;2.40;;
51448;SDS011;37520;46.570;14.268;2022-08-11T19:41:13;3.85;;;1.75;;
51448;SDS011;37520;46.570;14.268;2022-08-11T19:51:34;4.30;;;2.20;;
51448;SDS011;37520;46.570;14.268;2022-08-11T20:01:55;5.75;;;2.00;;
51448;SDS011;37520;46.570;14.268;2022-08-11T20:12:15;5.90;;;2.15;;
51448;SDS011;37520;46.570;14.268;2022-08-11T20:22:36;3.95;;;1.60;;
51448;SDS011;37520;46.570;14.268;2022-08-11T20:32:57;5.88;;;2.00;;
51448;SDS011;37520;46.570;14.268;2022-08-11T20:43:17;4.15;;;1.63;;
51448;SDS011;37520;46.570;14.268;2022-08-11T20:53:39;3.42;;;1.70;;
51448;SDS011;37520;46.570;14.268;2022-08-11T21:04:01;4.10;;;1.80;;
51448;SDS011;37520;46.570;14.268;2022-08-11T21:14:21;3.55;;;1.80;;
51448;SDS011;37520;46.570;14.268;2022-08-11T21:24:42;3.40;;;1.80;;
51448;SDS011;37520;46.570;14.268;2022-08-11T21:35:03;5.13;;;1.70;;
51448;SDS011;37520;46.570;14.268;2022-08-11T21:45:26;5.00;;;1.60;;
51448;SDS011;37520;46.570;14.268;2022-08-11T21:55:48;4.00;;;1.60;;
51448;SDS011;37520;46.570;14.268;2022-08-11T22:06:08;4.10;;;1.83;;
51448;SDS011;37520;46.570;14.268;2022-08-11T22:16:29;4.20;;;1.75;;
51448;SDS011;37520;46.570;14.268;2022-08-11T22:26:49;3.63;;;1.60;;
51448;SDS011;37520;46.570;14.268;2022-08-11T22:37:09;3.38;;;1.67;;
51448;SDS011;37520;46.570;14.268;2022-08-11T22:47:30;5.15;;;1.90;;
51448;SDS011;37520;46.570;14.268;2022-08-11T22:57:55;3.97;;;1.65;;
51448;SDS011;37520;46.570;14.268;2022-08-11T23:08:14;3.95;;;1.50;;
51448;SDS011;37520;46.570;14.268;2022-08-11T23:18:36;4.45;;;1.52;;
51448;SDS011;37520;46.570;14.268;2022-08-11T23:28:57;3.15;;;1.50;;
51448;SDS011;37520;46.570;14.268;2022-08-11T23:39:18;4.22;;;1.50;;
51448;SDS011;37520;46.570;14.268;2022-08-11T23:49:39;3.95;;;1.65;;
51448;SDS011;37520;46.570;14.268;2022-08-11T23:59:59;3.95;;;1.50;;
